createdAt,value
2023-03-23T15:57:57.256Z,2.83
2023-03-23T16:00:27.691Z,2.87
2023-03-23T16:02:59.284Z,3.13
2023-03-23T16:05:30.483Z,2.63
2023-03-23T16:08:00.930Z,3.07
2023-03-23T16:10:32.642Z,3.23
2023-03-23T16:13:00.417Z,2.50
2023-03-23T16:15:35.105Z,3.13
2023-03-23T16:18:03.092Z,2.60
2023-03-23T16:20:35.682Z,2.63
2023-03-23T16:23:03.910Z,3.00
2023-03-23T16:25:33.427Z,2.83
2023-03-23T16:28:02.137Z,3.07
2023-03-23T16:30:37.248Z,2.93
2023-03-23T16:33:07.244Z,2.60
2023-03-23T16:35:37.673Z,2.40
2023-03-23T16:38:09.374Z,2.30
2023-03-23T16:40:38.488Z,2.00
2023-03-23T16:43:09.197Z,2.47
2023-03-23T16:45:43.711Z,2.43
2023-03-23T16:48:13.754Z,2.73
2023-03-23T16:50:44.284Z,2.20
2023-03-23T16:53:14.593Z,2.57
2023-03-23T16:55:47.874Z,2.17
2023-03-23T16:58:17.764Z,2.33
2023-03-23T17:00:48.988Z,2.33
2023-03-23T17:03:17.514Z,2.33
2023-03-23T17:05:49.183Z,2.37
2023-03-23T17:08:17.868Z,2.03
2023-03-23T17:10:46.395Z,2.00
2023-03-23T17:13:16.209Z,2.60
2023-03-23T17:15:48.102Z,2.27
2023-03-23T17:18:17.029Z,3.33
2023-03-23T17:20:45.796Z,2.80
2023-03-23T17:23:15.534Z,2.37
2023-03-23T17:25:44.688Z,2.30
2023-03-23T17:28:13.274Z,2.50
2023-03-23T17:30:42.404Z,2.70
2023-03-23T17:33:11.174Z,2.53
2023-03-23T17:35:39.840Z,2.80
2023-03-23T17:38:07.763Z,3.03
2023-03-23T17:40:37.322Z,2.77
2023-03-23T17:43:07.051Z,2.90
2023-03-23T17:45:36.540Z,2.70
2023-03-23T17:48:07.996Z,3.00
2023-03-23T17:50:36.726Z,3.20
2023-03-23T17:53:10.930Z,3.60
2023-03-23T17:55:41.895Z,3.03
2023-03-23T17:58:12.438Z,3.00
2023-03-23T18:00:40.579Z,3.07
2023-03-23T18:03:08.683Z,2.60
2023-03-23T18:05:39.129Z,2.80
2023-03-23T18:08:08.030Z,2.80
2023-03-23T18:10:38.897Z,3.13
2023-03-23T18:13:09.562Z,2.50
2023-03-23T18:15:38.767Z,3.73
2023-03-23T18:18:07.817Z,2.60
2023-03-23T18:20:36.639Z,2.30
2023-03-23T18:23:06.959Z,2.70
2023-03-23T18:25:35.678Z,3.03
2023-03-23T18:28:07.085Z,2.60
2023-03-23T18:30:37.158Z,2.60
2023-03-23T18:33:06.868Z,2.90
2023-03-23T18:35:36.091Z,2.60
2023-03-23T18:38:04.272Z,2.60
2023-03-23T18:40:32.171Z,2.90
2023-03-23T18:43:02.780Z,2.63
2023-03-23T18:45:33.792Z,2.90
2023-03-23T18:48:04.319Z,2.50
2023-03-23T18:50:34.419Z,2.73
2023-03-23T18:53:02.595Z,3.10
2023-03-23T18:55:31.188Z,3.40
2023-03-23T18:58:00.422Z,2.60
2023-03-23T19:00:29.604Z,2.43
2023-03-23T19:02:58.247Z,35.13
2023-03-23T19:05:45.560Z,9.07
2023-03-23T19:08:13.983Z,3.57
2023-03-23T19:10:44.612Z,3.27
2023-03-23T19:13:13.267Z,3.03
2023-03-23T19:15:41.963Z,2.97
2023-03-23T19:18:11.698Z,3.10
2023-03-23T19:21:09.603Z,4.27
2023-03-23T19:23:32.118Z,2.97
2023-03-23T19:26:01.065Z,3.77
2023-03-23T19:31:01.002Z,3.43
2023-03-23T19:33:32.523Z,3.90
2023-03-23T19:36:10.961Z,3.30
2023-03-23T19:38:42.914Z,3.20
2023-03-23T19:41:11.663Z,3.70
2023-03-23T19:43:42.308Z,4.00
2023-03-23T19:46:10.652Z,4.40
2023-03-23T19:48:39.691Z,3.83
2023-03-23T19:51:09.188Z,3.90
2023-03-23T19:53:39.537Z,3.47
2023-03-23T19:56:13.918Z,3.80
2023-03-23T19:58:44.499Z,3.60
2023-03-23T20:01:13.206Z,3.73
2023-03-23T20:03:42.216Z,3.13
2023-03-23T20:06:16.867Z,4.20
2023-03-23T20:08:50.058Z,3.50
2023-03-23T20:11:21.664Z,3.87
2023-03-23T20:13:53.351Z,4.40
2023-03-23T20:16:23.764Z,4.33
2023-03-23T20:18:53.590Z,4.80
2023-03-23T20:21:25.129Z,4.87
2023-03-23T20:23:55.259Z,5.33
2023-03-23T20:26:29.896Z,5.90
2023-03-23T20:29:02.263Z,6.00
2023-03-23T20:31:35.810Z,5.90
2023-03-23T20:34:08.899Z,6.07
2023-03-23T20:36:42.036Z,5.50
2023-03-23T20:39:15.271Z,6.17
2023-03-23T20:41:48.744Z,5.90
2023-03-23T20:44:18.650Z,6.07
2023-03-23T20:46:51.999Z,6.50
2023-03-23T20:49:21.983Z,6.70
2023-03-23T20:51:52.031Z,8.57
2023-03-23T20:54:22.754Z,8.47
2023-03-23T20:56:55.994Z,7.80
2023-03-23T20:59:27.188Z,9.73
2023-03-23T21:01:55.658Z,7.77
2023-03-23T21:04:28.297Z,9.27
2023-03-23T21:06:57.176Z,9.77
2023-03-23T21:09:25.898Z,9.70
2023-03-23T21:12:00.072Z,9.23
2023-03-23T21:14:28.578Z,9.40
2023-03-23T21:16:56.930Z,10.20
2023-03-23T21:19:25.078Z,11.00
2023-03-23T21:21:56.950Z,9.97
2023-03-23T21:24:28.482Z,11.00
2023-03-23T21:27:01.367Z,10.37
2023-03-23T21:29:29.445Z,10.37
2023-03-23T21:34:29.273Z,10.67
2023-03-23T21:36:57.759Z,10.30
2023-03-23T21:39:26.253Z,10.60
2023-03-23T21:41:55.043Z,10.60
2023-03-23T21:44:24.806Z,10.40
2023-03-23T21:46:54.740Z,11.93
2023-03-23T21:49:23.354Z,11.17
2023-03-23T21:51:51.300Z,12.77
2023-03-23T21:54:21.344Z,12.00
2023-03-23T21:56:50.281Z,11.83
2023-03-23T21:59:19.222Z,11.63
2023-03-23T22:01:50.318Z,11.03
2023-03-23T22:04:20.478Z,11.97
2023-03-23T22:06:49.625Z,10.80
2023-03-23T22:09:17.909Z,11.70
2023-03-23T22:11:48.820Z,10.53
2023-03-23T22:14:17.836Z,10.13
2023-03-23T22:16:45.668Z,10.60
2023-03-23T22:19:15.214Z,10.37
2023-03-23T22:21:44.246Z,10.87
2023-03-23T22:24:12.313Z,10.13
2023-03-23T22:26:42.932Z,10.37
2023-03-23T22:29:11.860Z,9.43
2023-03-23T22:31:42.417Z,9.10
2023-03-23T22:34:12.160Z,8.60
2023-03-23T22:36:44.668Z,8.73
2023-03-23T22:39:23.884Z,8.50
2023-03-23T22:41:52.266Z,7.73
2023-03-23T22:44:22.083Z,6.70
2023-03-23T22:46:50.450Z,7.50
2023-03-23T22:49:20.079Z,6.67
2023-03-23T22:51:49.465Z,6.83
2023-03-23T22:54:17.550Z,6.20
2023-03-23T22:56:46.603Z,5.87
2023-03-23T22:59:14.554Z,4.93
2023-03-23T23:01:43.720Z,5.37
2023-03-23T23:04:13.148Z,5.23
2023-03-23T23:06:44.176Z,5.20
2023-03-23T23:09:15.769Z,4.63
2023-03-23T23:11:44.234Z,4.70
2023-03-23T23:14:12.163Z,4.47
2023-03-23T23:16:41.291Z,4.50
2023-03-23T23:19:09.762Z,4.50
2023-03-23T23:21:37.960Z,4.50
2023-03-23T23:24:07.443Z,3.97
2023-03-23T23:26:37.374Z,4.20
2023-03-23T23:29:05.750Z,3.67
2023-03-23T23:31:34.867Z,4.00
2023-03-23T23:34:06.094Z,3.50
2023-03-23T23:36:34.710Z,3.77
2023-03-23T23:39:07.128Z,3.47
2023-03-23T23:41:37.917Z,3.37
2023-03-23T23:44:08.273Z,3.83
2023-03-23T23:46:36.225Z,3.60
2023-03-23T23:49:04.397Z,3.40
2023-03-23T23:51:34.408Z,3.70
2023-03-23T23:54:02.733Z,3.70
2023-03-23T23:56:31.218Z,3.93
2023-03-23T23:59:00.455Z,3.47
